Time;durP1;ratioP1;P1;durP2;ratioP2;P2;SDS_P1;SDS_P2;PMS_P1;PMS_P2;Temp;Humidity;BMP_temperature;BMP_pressure;BME280_temperature;BME280_humidity;BME280_pressure;Samples;Min_cycle;Max_cycle;Signal;HPM_P1;HPM_P2
2022/11/18 08:15:14;;;;;;;45.17;29.80;;;;;;;4.39;79.72;92921.42;1767788;79;26317;-87
2022/11/18 08:17:41;;;;;;;51.15;35.20;;;;;;;4.30;79.14;92917.34;1728863;81;21161;-87
2022/11/18 08:20:10;;;;;;;51.30;33.78;;;;;;;4.28;79.54;92925.17;1737835;80;21701;-87
2022/11/18 08:22:37;;;;;;;33.40;22.32;;;;;;;4.39;79.70;92927.48;1724194;81;21049;-85
2022/11/18 08:25:05;;;;;;;44.77;31.70;;;;;;;4.49;79.17;92928.41;1689102;83;21057;-89
2022/11/18 08:27:33;;;;;;;47.25;32.83;;;;;;;4.51;78.98;92931.43;1736959;80;21037;-89
2022/11/18 08:30:04;;;;;;;49.63;32.55;;;;;;;4.55;78.81;92927.18;1750345;81;20986;-90
2022/11/18 08:32:32;;;;;;;42.20;29.23;;;;;;;4.61;78.81;92928.11;1736058;81;21458;-91
2022/11/18 08:35:05;;;;;;;40.43;28.10;;;;;;;4.73;78.65;92926.59;1747033;81;21186;-90
2022/11/18 08:37:39;;;;;;;36.83;25.10;;;;;;;4.83;78.14;92915.84;1690087;82;21106;-88
2022/11/18 08:40:07;;;;;;;64.60;39.38;;;;;;;4.92;77.83;92921.89;1695252;83;21141;-88
2022/11/18 08:42:34;;;;;;;45.65;29.27;;;;;;;5.00;78.28;92927.20;1670978;84;21205;-90
2022/11/18 08:45:03;;;;;;;57.78;34.10;;;;;;;5.15;77.75;92933.55;1680426;83;21308;-88
2022/11/18 08:47:32;;;;;;;58.78;33.73;;;;;;;5.21;77.20;92935.20;1672325;83;21223;-88
2022/11/18 08:49:59;;;;;;;65.42;38.90;;;;;;;5.22;76.51;92933.98;1655913;84;21094;-88
2022/11/18 08:52:26;;;;;;;73.22;43.25;;;;;;;5.29;76.60;92930.94;1670283;84;21016;-89
2022/11/18 08:54:54;;;;;;;131.93;76.85;;;;;;;5.42;76.11;92924.71;1683045;83;21210;-86
2022/11/18 08:57:21;;;;;;;104.27;62.60;;;;;;;5.54;75.10;92918.30;1689783;84;21037;-87
2022/11/18 08:59:48;;;;;;;68.85;43.45;;;;;;;5.60;75.24;92915.86;1663067;84;21679;-86
2022/11/18 09:02:16;;;;;;;54.75;34.13;;;;;;;5.68;74.17;92914.92;1681276;83;20963;-90
2022/11/18 09:04:45;;;;;;;43.35;28.02;;;;;;;5.59;73.80;92914.34;1700360;82;21045;-88
2022/11/18 09:07:14;;;;;;;44.50;30.17;;;;;;;5.50;73.46;92899.39;1686281;83;21104;-86
2022/11/18 09:09:42;;;;;;;48.48;29.27;;;;;;;5.40;73.47;92909.42;1697568;82;21235;-87
2022/11/18 09:12:13;;;;;;;33.15;23.52;;;;;;;5.38;73.90;92907.14;1727839;80;21113;-87
2022/11/18 09:14:50;;;;;;;36.00;27.60;;;;;;;5.44;73.62;92919.55;1738018;81;21074;-88
2022/11/18 09:17:19;;;;;;;39.35;27.90;;;;;;;5.44;73.62;92915.47;1736932;81;21025;-85
2022/11/18 09:19:47;;;;;;;45.00;31.85;;;;;;;5.57;73.65;92907.86;1752132;80;20995;-88
2022/11/18 09:22:14;;;;;;;52.38;34.27;;;;;;;5.59;73.43;92899.34;1713378;80;22268;-91
2022/11/18 09:24:44;;;;;;;51.83;38.45;;;;;;;5.63;73.77;92898.57;1728375;81;21028;-87
2022/11/18 09:27:11;;;;;;;57.58;40.00;;;;;;;5.81;74.14;92892.33;1748291;81;21085;-87
2022/11/18 09:29:42;;;;;;;52.38;38.02;;;;;;;5.99;73.90;92885.42;1736262;81;21169;-88
2022/11/18 09:32:09;;;;;;;52.45;39.03;;;;;;;6.18;73.38;92886.84;1716640;80;21092;-89
2022/11/18 09:34:36;;;;;;;43.17;31.00;;;;;;;6.28;72.89;92874.63;1746387;80;21514;-91
2022/11/18 09:37:05;;;;;;;44.60;32.08;;;;;;;6.37;72.88;92867.76;1752512;81;20963;-90
2022/11/18 09:39:37;;;;;;;;;;;;;;;6.48;72.31;92864.64;1701772;82;21044;-85
2022/11/18 09:42:31;;;;;;;41.70;30.40;;;;;;;6.53;71.57;92878.27;1713709;82;20241;-86
2022/11/18 09:45:21;;;;;;;54.90;35.75;;;;;;;6.55;71.56;92874.45;1698028;82;21120;-86
2022/11/18 09:47:48;;;;;;;46.75;33.20;;;;;;;6.65;71.20;92872.55;1736474;81;21250;-83
2022/11/18 09:50:20;;;;;;;48.55;34.25;;;;;;;6.72;70.94;92883.11;1658203;83;21207;-85
2022/11/18 09:53:19;;;;;;;53.40;40.35;;;;;;;6.77;70.53;92880.35;1713076;82;21113;-86
2022/11/18 09:55:46;;;;;;;41.02;31.07;;;;;;;6.76;70.58;92897.37;1729946;82;21058;-87
2022/11/18 09:58:32;;;;;;;40.67;28.38;;;;;;;6.64;70.14;92892.13;1678340;83;21086;-90
2022/11/18 10:01:00;;;;;;;37.23;26.57;;;;;;;6.50;70.05;92903.78;1693241;83;21169;-87
2022/11/18 10:03:32;;;;;;;41.23;29.18;;;;;;;6.39;70.18;92888.52;1620956;86;21000;-85
2022/11/18 10:06:20;;;;;;;52.93;37.73;;;;;;;6.45;70.99;92878.46;1668840;83;21188;-84
2022/11/18 10:09:16;;;;;;;74.65;48.60;;;;;;;6.67;71.31;92877.56;1718023;82;21089;-87
2022/11/18 10:12:13;;;;;;;64.75;44.05;;;;;;;6.85;71.09;92874.69;1727917;82;21531;-85
2022/11/18 10:15:02;;;;;;;57.35;40.00;;;;;;;7.12;70.48;92867.00;1732982;80;21263;-87
2022/11/18 10:18:00;;;;;;;44.85;32.67;;;;;;;7.44;70.30;92873.65;1735809;80;21017;-85
2022/11/18 10:20:51;;;;;;;43.70;31.37;;;;;;;7.73;69.55;92866.03;1738516;81;21006;-85
2022/11/18 10:23:28;;;;;;;42.13;29.12;;;;;;;7.83;69.09;92870.92;1737473;82;21001;-84
2022/11/18 10:25:56;;;;;;;33.85;26.05;;;;;;;7.83;69.21;92870.92;1722534;82;21514;-87
2022/11/18 10:28:28;;;;;;;36.33;28.02;;;;;;;7.88;68.89;92873.61;1683652;83;21150;-85
2022/11/18 10:31:08;;;;;;;28.85;21.33;;;;;;;7.97;68.78;92863.30;1732462;81;21032;-88
2022/11/18 10:33:36;;;;;;;43.65;32.88;;;;;;;7.97;68.00;92861.92;1655893;85;21006;-88
2022/11/18 10:36:11;;;;;;;44.93;33.90;;;;;;;7.84;68.11;92865.58;1671147;84;21625;-85
2022/11/18 10:38:41;;;;;;;38.38;27.73;;;;;;;7.69;68.42;92873.69;1670463;85;21061;-87
2022/11/18 10:41:13;;;;;;;30.40;23.05;;;;;;;7.61;69.02;92873.91;1659791;84;21153;-89
2022/11/18 10:43:50;;;;;;;29.60;21.93;;;;;;;7.49;68.55;92879.08;1642957;87;21542;-88
2022/11/18 10:46:34;;;;;;;32.50;22.40;;;;;;;7.43;68.79;92886.41;1649784;85;21112;-85
2022/11/18 10:49:15;;;;;;;27.62;20.00;;;;;;;7.49;69.00;92874.97;1603979;88;21156;-85
2022/11/18 10:51:48;;;;;;;36.65;24.92;;;;;;;7.62;69.40;92878.92;1613431;88;21041;-88
2022/11/18 10:54:21;;;;;;;40.35;29.18;;;;;;;7.93;69.12;92860.61;1591327;88;21199;-88
2022/11/18 10:57:06;;;;;;;34.40;25.43;;;;;;;8.28;69.36;92866.87;1614348;88;21247;-86
2022/11/18 11:02:36;;;;;;;28.15;22.90;;;;;;;8.93;68.33;92853.23;1534235;92;21150;-90
2022/11/18 11:05:14;;;;;;;34.67;24.35;;;;;;;9.15;66.37;92852.09;1509174;92;21091;-88
2022/11/18 11:07:43;;;;;;;31.12;23.85;;;;;;;9.24;66.03;92857.43;1480483;94;21315;-87
2022/11/18 11:10:19;;;;;;;31.33;23.27;;;;;;;9.51;65.60;92854.19;1462205;95;21155;-90
2022/11/18 11:13:09;;;;;;;38.63;28.42;;;;;;;9.67;65.24;92855.72;1457178;96;21166;-84
2022/11/18 11:15:44;;;;;;;35.83;28.00;;;;;;;9.65;64.76;92858.17;1448127;96;21147;-85
2022/11/18 11:18:41;;;;;;;34.50;25.25;;;;;;;9.87;64.30;92869.97;1458003;96;21094;-86
2022/11/18 11:21:18;;;;;;;26.87;21.35;;;;;;;10.24;63.97;92850.16;1451643;95;21281;-88
2022/11/18 11:23:46;;;;;;;27.40;21.50;;;;;;;10.60;62.63;92846.00;1450950;96;21281;-86
2022/11/18 11:26:28;;;;;;;31.02;21.85;;;;;;;10.74;62.06;92854.66;1460542;96;21107;-86
2022/11/18 11:29:27;;;;;;;31.40;22.32;;;;;;;11.03;61.88;92850.93;1460131;96;21110;-85
2022/11/18 11:32:26;;;;;;;30.62;23.57;;;;;;;11.36;61.27;92841.36;1507542;93;21346;-87
2022/11/18 11:35:18;;;;;;;30.00;23.00;;;;;;;11.62;61.10;92835.06;1501613;93;21440;-86
2022/11/18 11:38:03;;;;;;;26.90;21.05;;;;;;;11.85;59.40;92837.18;1497436;94;21266;-88
2022/11/18 11:41:12;;;;;;;26.68;20.30;;;;;;;11.82;59.08;92827.93;1482966;94;21096;-88
2022/11/18 11:44:15;;;;;;;25.90;20.68;;;;;;;11.77;58.82;92836.95;1482107;94;21226;-85
2022/11/18 11:50:11;;;;;;;26.95;20.75;;;;;;;11.86;58.53;92831.18;1521790;92;21170;-87
2022/11/18 11:52:46;;;;;;;27.15;21.27;;;;;;;11.91;59.13;92820.78;1521381;92;21208;-88
2022/11/18 11:55:43;;;;;;;26.33;21.85;;;;;;;11.86;58.93;92813.91;1523788;92;21167;-87
2022/11/18 11:58:38;;;;;;;39.85;29.25;;;;;;;11.59;59.20;92815.41;1547648;89;22372;-88
2022/11/18 12:01:15;;;;;;;35.92;26.37;;;;;;;11.37;59.69;92809.83;1571259;88;21202;-87
2022/11/18 12:03:47;;;;;;;40.28;28.20;;;;;;;10.98;60.17;92822.75;1680294;83;21299;-88
2022/11/18 12:06:14;;;;;;;37.47;27.57;;;;;;;10.61;61.08;92813.13;1696396;82;21069;-88
2022/11/18 12:08:53;;;;;;;34.85;26.35;;;;;;;10.48;61.34;92820.30;1687467;84;21065;-86
2022/11/18 12:11:41;;;;;;;32.65;25.30;;;;;;;10.36;62.04;92807.77;1678481;83;21136;-87
2022/11/18 12:14:17;;;;;;;34.90;27.22;;;;;;;10.14;62.47;92815.89;1642111;85;21145;-86
2022/11/18 12:16:53;;;;;;;32.90;22.77;;;;;;;9.90;63.18;92821.69;1583435;90;21161;-89
2022/11/18 12:19:22;;;;;;;24.05;19.35;;;;;;;9.80;63.48;92820.99;1579347;90;21647;-85
2022/11/18 12:22:02;;;;;;;49.30;36.73;;;;;;;9.53;64.07;92818.16;1577881;90;21253;-87
2022/11/18 12:24:38;;;;;;;52.53;39.35;;;;;;;9.28;64.36;92822.30;1570707;90;21062;-87
2022/11/18 12:27:33;;;;;;;37.42;26.90;;;;;;;9.02;65.35;92815.44;1567866;89;21154;-86
2022/11/18 12:30:00;;;;;;;26.97;22.05;;;;;;;9.02;66.39;92810.56;1572791;89;21830;-87
2022/11/18 12:32:41;;;;;;;50.38;37.83;;;;;;;9.00;66.74;92803.44;1573843;89;21094;-85
2022/11/18 12:37:56;;;;;;;49.50;32.73;;;;;;;8.95;67.01;92792.57;1462401;95;21242;-86
2022/11/18 12:40:34;;;;;;;30.88;23.38;;;;;;;8.93;67.24;92790.16;1454340;97;21723;-88
2022/11/18 12:45:54;;;;;;;27.90;21.30;;;;;;;8.78;68.15;92788.77;1454109;97;21629;-87
2022/11/18 12:48:38;;;;;;;31.30;21.95;;;;;;;8.65;68.45;92791.84;1456119;96;21242;-87
2022/11/18 12:51:20;;;;;;;33.08;23.62;;;;;;;8.59;68.86;92789.67;1442145;95;21198;-87
2022/11/18 12:53:49;;;;;;;33.28;26.15;;;;;;;8.50;68.91;92776.73;1485584;94;21657;-87
2022/11/18 12:56:33;;;;;;;31.10;21.77;;;;;;;8.28;69.59;92788.17;1470176;95;21697;-86
2022/11/18 12:59:01;;;;;;;;;;;;;;;8.20;70.10;92784.34;1446488;96;21382;-88
2022/11/18 13:01:30;;;;;;;28.67;20.30;;;;;;;8.10;70.31;92791.15;1468281;96;20496;-86
2022/11/18 13:04:20;;;;;;;21.95;16.82;;;;;;;7.95;70.72;92794.58;1466765;96;21156;-87
2022/11/18 13:06:47;;;;;;;23.27;17.15;;;;;;;7.82;71.34;92781.83;1473294;94;21133;-84
2022/11/18 13:09:24;;;;;;;28.98;20.02;;;;;;;7.67;71.94;92786.58;1462856;95;21184;-84
2022/11/18 13:12:04;;;;;;;29.50;23.05;;;;;;;7.61;72.27;92787.12;1492198;94;21080;-86
2022/11/18 13:17:53;;;;;;;31.93;23.87;;;;;;;7.62;73.03;92781.79;1486362;95;21226;-85
2022/11/18 13:20:32;;;;;;;26.50;20.15;;;;;;;7.51;73.41;92795.92;1450294;96;21111;-89
2022/11/18 13:26:19;;;;;;;35.48;26.33;;;;;;;7.32;74.76;92783.06;1460993;96;21090;-86
2022/11/18 13:29:32;;;;;;;47.53;28.45;;;;;;;7.38;75.21;92782.52;1495357;94;21142;-88
2022/11/18 13:32:20;;;;;;;32.03;22.82;;;;;;;7.32;75.08;92785.80;1491764;94;21297;-86
2022/11/18 13:34:57;;;;;;;42.40;26.85;;;;;;;7.26;75.65;92774.02;1528882;90;21170;-85
2022/11/18 13:37:30;;;;;;;42.78;28.00;;;;;;;7.28;75.67;92779.00;1558178;89;21359;-84
2022/11/18 13:39:58;;;;;;;36.55;28.32;;;;;;;7.18;75.57;92779.72;1563589;89;21112;-86
2022/11/18 13:42:27;;;;;;;35.65;24.65;;;;;;;7.07;76.22;92778.05;1566424;89;21113;-87
2022/11/18 13:45:04;;;;;;;50.23;34.23;;;;;;;7.05;76.48;92775.03;1574782;90;21219;-86
2022/11/18 13:47:37;;;;;;;47.03;29.35;;;;;;;6.93;76.82;92780.93;1577720;90;21120;-84
2022/11/18 13:50:21;;;;;;;36.40;23.62;;;;;;;6.85;77.46;92779.05;1570442;89;21152;-84
2022/11/18 13:53:19;;;;;;;32.95;22.87;;;;;;;6.88;77.82;92772.63;1569747;89;21490;-84
2022/11/18 13:56:09;;;;;;;32.40;22.90;;;;;;;6.85;77.58;92787.23;1575514;89;21235;-85
2022/11/18 13:58:43;;;;;;;28.75;20.90;;;;;;;6.76;77.63;92783.22;1560453;90;21018;-85
2022/11/18 14:01:22;;;;;;;28.83;20.82;;;;;;;6.68;78.00;92765.07;1591460;89;21129;-88
2022/11/18 14:03:53;;;;;;;31.07;21.87;;;;;;;6.61;78.50;92774.25;1569639;89;21030;-89
2022/11/18 14:06:34;;;;;;;35.48;24.15;;;;;;;6.59;78.82;92778.83;1581672;89;28573;-85
2022/11/18 14:09:24;;;;;;;44.00;27.60;;;;;;;6.58;79.40;92777.92;1548763;90;21222;-87
2022/11/18 14:12:06;;;;;;;35.90;24.90;;;;;;;6.57;79.35;92772.31;1554497;90;21193;-86
2022/11/18 14:14:40;;;;;;;37.53;26.40;;;;;;;6.58;80.08;92777.92;1549376;91;21096;-85
2022/11/18 14:17:22;;;;;;;45.90;29.67;;;;;;;6.70;80.09;92771.44;1501943;93;21246;-87
2022/11/18 14:19:55;;;;;;;;;;;;;;;6.74;79.65;92773.38;1502510;94;21195;-87
2022/11/18 14:22:28;;;;;;;67.77;41.63;;;;;;;6.69;79.69;92776.14;1507597;94;20227;-87
2022/11/18 14:24:58;;;;;;;67.75;41.68;;;;;;;6.70;79.71;92785.10;1489465;95;21083;-86
2022/11/18 14:27:53;;;;;;;71.65;41.28;;;;;;;6.72;80.00;92783.39;1485559;95;21030;-85
2022/11/18 14:30:34;;;;;;;61.35;38.45;;;;;;;6.79;79.79;92781.67;1494882;93;21317;-87
2022/11/18 14:33:23;;;;;;;57.73;35.23;;;;;;;6.76;79.54;92787.31;1476407;96;21038;-88
2022/11/18 14:36:11;;;;;;;51.50;33.35;;;;;;;6.69;79.51;92789.80;1481417;93;21110;-86
2022/11/18 14:38:44;;;;;;;53.45;34.78;;;;;;;6.65;80.00;92786.50;1503119;93;21171;-89
2022/11/18 14:41:14;;;;;;;64.40;38.13;;;;;;;6.68;80.20;92786.19;1533557;91;21030;-88
2022/11/18 14:43:45;;;;;;;63.65;38.53;;;;;;;6.75;80.07;92803.56;1540326;92;21324;-87
2022/11/18 14:46:17;;;;;;;54.77;38.38;;;;;;;6.70;79.68;92813.79;1528662;92;21175;-88
2022/11/18 14:48:44;;;;;;;63.60;42.35;;;;;;;6.58;80.05;92800.54;1520330;93;21127;-86
2022/11/18 14:51:15;;;;;;;59.05;37.42;;;;;;;6.56;80.75;92802.22;1543000;91;21250;-86
2022/11/18 14:53:44;;;;;;;48.75;34.53;;;;;;;6.60;80.71;92797.32;1522788;93;21170;-86
2022/11/18 14:56:28;;;;;;;87.88;52.45;;;;;;;6.57;80.62;92801.00;1537839;92;21273;-88
2022/11/18 14:58:55;;;;;;;84.72;50.67;;;;;;;6.49;80.88;92791.66;1537588;92;21027;-84
2022/11/18 15:01:24;;;;;;;92.40;52.08;;;;;;;6.41;80.98;92787.77;1524241;92;21099;-87
